createdAt,value
2022-08-30T00:01:32.987Z,20.80
2022-08-30T00:04:02.036Z,20.80
2022-08-30T00:06:30.406Z,20.80
2022-08-30T00:08:57.865Z,20.80
2022-08-30T00:11:29.573Z,20.80
2022-08-30T00:13:58.211Z,20.70
2022-08-30T00:16:26.839Z,20.70
2022-08-30T00:18:54.650Z,20.60
2022-08-30T00:21:22.334Z,20.60
2022-08-30T00:23:50.076Z,20.70
2022-08-30T00:26:17.321Z,20.60
2022-08-30T00:28:44.494Z,20.60
2022-08-30T00:31:13.556Z,20.60
2022-08-30T00:33:43.567Z,20.60
2022-08-30T00:36:10.589Z,20.60
2022-08-30T00:38:37.529Z,20.60
2022-08-30T00:41:05.548Z,20.60
2022-08-30T00:43:37.573Z,20.60
2022-08-30T00:46:08.747Z,20.50
2022-08-30T00:48:40.990Z,20.50
2022-08-30T00:51:11.553Z,20.40
2022-08-30T00:53:44.327Z,20.40
2022-08-30T00:56:12.800Z,20.30
2022-08-30T00:58:45.555Z,20.30
2022-08-30T01:01:13.366Z,20.30
2022-08-30T01:03:41.945Z,20.30
2022-08-30T01:06:09.584Z,20.40
2022-08-30T01:08:37.345Z,20.40
2022-08-30T01:11:05.499Z,20.30
2022-08-30T01:13:35.806Z,20.30
2022-08-30T01:16:04.064Z,20.30
2022-08-30T01:18:32.260Z,20.30
2022-08-30T01:21:04.102Z,20.20
2022-08-30T01:23:33.514Z,20.10
2022-08-30T01:26:02.878Z,20.00
2022-08-30T01:28:31.174Z,20.10
2022-08-30T01:30:59.067Z,20.00
2022-08-30T01:33:27.504Z,20.00
2022-08-30T01:36:04.469Z,20.00
2022-08-30T01:38:36.751Z,20.00
2022-08-30T01:41:11.159Z,20.00
2022-08-30T01:43:38.413Z,20.00
2022-08-30T01:46:06.115Z,19.90
2022-08-30T01:48:34.343Z,19.80
2022-08-30T01:51:02.957Z,19.80
2022-08-30T01:53:30.119Z,19.80
2022-08-30T01:55:57.425Z,19.80
2022-08-30T01:58:25.086Z,19.80
2022-08-30T02:00:52.495Z,19.80
2022-08-30T02:03:22.736Z,19.80
2022-08-30T02:05:50.457Z,19.80
2022-08-30T02:08:17.781Z,19.70
2022-08-30T02:10:44.945Z,19.70
2022-08-30T02:13:12.257Z,19.60
2022-08-30T02:15:41.714Z,19.50
2022-08-30T02:18:10.793Z,19.60
2022-08-30T02:20:40.027Z,19.60
2022-08-30T02:23:07.437Z,19.50
2022-08-30T02:25:34.669Z,19.50
2022-08-30T02:28:01.934Z,19.40
2022-08-30T02:30:29.511Z,19.30
2022-08-30T02:32:57.501Z,19.30
2022-08-30T02:35:24.561Z,19.30
2022-08-30T02:37:52.271Z,19.30
2022-08-30T02:40:21.295Z,19.30
2022-08-30T02:42:49.575Z,19.30
2022-08-30T02:45:16.744Z,19.30
2022-08-30T02:47:47.142Z,19.30
2022-08-30T02:50:15.498Z,19.20
2022-08-30T02:52:48.530Z,19.10
2022-08-30T02:55:16.709Z,19.10
2022-08-30T02:57:44.824Z,19.00
2022-08-30T03:00:15.151Z,19.00
2022-08-30T03:02:42.538Z,19.00
2022-08-30T03:05:13.060Z,19.00
2022-08-30T03:07:41.739Z,18.90
2022-08-30T03:10:09.860Z,19.00
2022-08-30T03:12:37.242Z,19.10
2022-08-30T03:15:06.621Z,19.00
2022-08-30T03:17:34.498Z,19.00
2022-08-30T03:20:02.254Z,19.00
2022-08-30T03:22:29.762Z,19.00
2022-08-30T03:24:59.569Z,19.00
2022-08-30T03:27:27.923Z,19.00
2022-08-30T03:29:55.734Z,19.00
2022-08-30T03:32:23.200Z,19.00
2022-08-30T03:34:50.489Z,19.00
2022-08-30T03:37:17.975Z,19.00
2022-08-30T03:39:45.644Z,19.00
2022-08-30T03:42:13.368Z,19.10
2022-08-30T03:44:40.454Z,19.10
2022-08-30T03:47:08.584Z,19.00
2022-08-30T03:49:35.597Z,19.00
2022-08-30T03:52:03.097Z,19.00
2022-08-30T03:54:30.317Z,19.00
2022-08-30T03:56:57.421Z,19.00
2022-08-30T03:59:24.550Z,19.10
2022-08-30T04:01:52.136Z,19.00
2022-08-30T04:04:21.108Z,19.00
2022-08-30T04:06:49.879Z,19.00
2022-08-30T04:09:17.904Z,19.00
2022-08-30T04:11:44.918Z,19.00
2022-08-30T04:14:11.953Z,19.00
2022-08-30T04:16:38.920Z,19.00
2022-08-30T04:19:06.141Z,18.90
2022-08-30T04:21:33.243Z,18.90
2022-08-30T04:24:04.241Z,18.90
2022-08-30T04:26:31.213Z,18.90
2022-08-30T04:28:59.472Z,18.90
2022-08-30T04:31:27.488Z,18.90
2022-08-30T04:33:54.889Z,18.90
2022-08-30T04:36:22.285Z,18.80
2022-08-30T04:38:49.491Z,18.80
2022-08-30T04:41:19.201Z,18.80
2022-08-30T04:43:51.020Z,18.80
2022-08-30T04:46:19.181Z,18.80
2022-08-30T04:48:47.313Z,18.80
2022-08-30T04:51:16.854Z,18.80
2022-08-30T04:53:45.163Z,18.80
2022-08-30T04:56:16.571Z,18.90
2022-08-30T04:58:48.038Z,18.90
2022-08-30T05:01:20.064Z,18.90
2022-08-30T05:03:50.396Z,18.80
2022-08-30T05:06:18.368Z,18.80
2022-08-30T05:08:46.606Z,18.70
2022-08-30T05:11:15.476Z,18.70
2022-08-30T05:13:43.022Z,18.80
2022-08-30T05:16:10.393Z,18.80
2022-08-30T05:18:37.656Z,18.80
2022-08-30T05:21:10.552Z,18.80
2022-08-30T05:23:39.538Z,18.80
2022-08-30T05:26:13.335Z,18.90
2022-08-30T05:28:40.795Z,18.90
2022-08-30T05:31:24.354Z,18.90
2022-08-30T05:33:53.533Z,18.90
2022-08-30T05:36:23.823Z,18.90
2022-08-30T05:38:52.316Z,19.00
2022-08-30T05:41:21.119Z,19.10
2022-08-30T05:43:48.677Z,19.00
2022-08-30T05:46:19.950Z,19.00
2022-08-30T05:48:48.011Z,19.00
2022-08-30T05:51:21.364Z,18.90
2022-08-30T05:53:50.526Z,19.00
2022-08-30T05:56:21.313Z,19.00
2022-08-30T05:58:52.102Z,19.00
2022-08-30T06:01:25.078Z,19.00
2022-08-30T06:03:53.204Z,19.10
2022-08-30T06:06:20.591Z,19.10
2022-08-30T06:08:49.011Z,19.20
2022-08-30T06:11:19.073Z,19.30
2022-08-30T06:13:47.252Z,19.30
2022-08-30T06:16:16.752Z,19.40
2022-08-30T06:18:44.926Z,19.40
2022-08-30T06:21:26.419Z,19.50
2022-08-30T06:24:00.219Z,19.50
2022-08-30T06:26:30.138Z,19.50
2022-08-30T06:28:58.451Z,19.60
2022-08-30T06:31:26.958Z,19.60
2022-08-30T06:33:55.065Z,19.60
2022-08-30T06:36:24.840Z,19.60
2022-08-30T06:38:57.146Z,19.70
2022-08-30T06:41:28.211Z,19.70
2022-08-30T06:43:56.448Z,19.80
2022-08-30T06:46:29.152Z,19.80
2022-08-30T06:48:56.866Z,19.90
2022-08-30T06:51:26.701Z,20.00
2022-08-30T06:53:54.481Z,20.00
2022-08-30T06:56:22.629Z,20.10
2022-08-30T06:58:50.547Z,20.10
2022-08-30T07:01:21.783Z,20.20
2022-08-30T07:03:49.273Z,20.30
2022-08-30T07:06:16.704Z,20.30
2022-08-30T07:08:46.979Z,20.40
2022-08-30T07:11:15.251Z,20.50
2022-08-30T07:13:45.685Z,20.60
2022-08-30T07:16:14.623Z,20.60
2022-08-30T07:18:50.819Z,20.60
2022-08-30T07:21:20.116Z,20.60
2022-08-30T07:23:53.388Z,20.70
2022-08-30T07:26:32.025Z,20.80
2022-08-30T07:28:59.682Z,20.90
2022-08-30T07:31:26.922Z,20.90
2022-08-30T07:33:54.528Z,20.90
2022-08-30T07:36:22.086Z,21.00
2022-08-30T07:38:50.963Z,21.10
2022-08-30T07:41:24.401Z,21.20
2022-08-30T07:43:51.999Z,21.30
2022-08-30T07:46:20.407Z,21.30
2022-08-30T07:48:47.837Z,21.40
2022-08-30T07:51:19.126Z,21.50
2022-08-30T07:53:47.224Z,21.50
2022-08-30T07:56:14.762Z,21.50
2022-08-30T07:58:43.061Z,21.70
2022-08-30T08:01:12.582Z,21.80
2022-08-30T08:03:43.097Z,21.80
2022-08-30T08:06:13.381Z,21.90
2022-08-30T08:08:41.622Z,22.10
2022-08-30T08:11:17.878Z,22.20
2022-08-30T08:13:54.140Z,22.40
2022-08-30T08:16:24.803Z,22.40
2022-08-30T08:18:53.932Z,22.50
2022-08-30T08:21:25.295Z,22.50
2022-08-30T08:23:52.681Z,22.70
2022-08-30T08:26:20.953Z,22.70
2022-08-30T08:28:49.655Z,22.90
2022-08-30T08:31:31.460Z,22.90
2022-08-30T08:34:07.732Z,22.90
2022-08-30T08:36:37.385Z,23.00
2022-08-30T08:39:07.728Z,23.10
2022-08-30T08:42:20.585Z,23.30
2022-08-30T08:45:10.166Z,23.40
2022-08-30T08:47:59.084Z,23.60
2022-08-30T08:50:30.249Z,23.60
2022-08-30T08:53:46.765Z,23.70
2022-08-30T08:56:17.517Z,23.70
2022-08-30T08:58:51.555Z,23.70
2022-08-30T09:01:21.170Z,23.70
2022-08-30T09:03:49.743Z,23.70
2022-08-30T09:06:22.508Z,23.70
2022-08-30T09:08:49.924Z,23.70
2022-08-30T09:11:26.215Z,23.90
2022-08-30T09:13:54.901Z,23.90
2022-08-30T09:17:02.839Z,24.00
2022-08-30T09:19:50.802Z,24.10
2022-08-30T09:22:35.710Z,24.20
2022-08-30T09:25:10.983Z,24.20
2022-08-30T09:27:39.670Z,24.30
2022-08-30T09:30:07.103Z,24.30
2022-08-30T09:32:52.552Z,24.40
2022-08-30T09:35:43.591Z,24.40
2022-08-30T09:38:17.516Z,24.50
2022-08-30T09:40:52.737Z,24.60
2022-08-30T09:43:23.260Z,24.60
2022-08-30T09:46:01.655Z,24.70
2022-08-30T09:48:44.266Z,24.80
2022-08-30T09:51:11.850Z,24.70
2022-08-30T09:54:16.623Z,24.90
2022-08-30T09:57:05.282Z,24.90
2022-08-30T10:00:00.392Z,25.00
2022-08-30T10:02:41.145Z,25.10
2022-08-30T10:05:27.855Z,25.10
2022-08-30T10:08:09.432Z,25.20
2022-08-30T10:11:07.388Z,25.30
2022-08-30T10:14:02.980Z,25.50
2022-08-30T10:16:30.016Z,25.50
2022-08-30T10:18:59.909Z,25.60
2022-08-30T10:21:39.880Z,25.70
2022-08-30T10:24:13.051Z,25.70
2022-08-30T10:27:02.513Z,25.80
2022-08-30T10:29:49.492Z,26.00
2022-08-30T10:32:25.991Z,26.10
2022-08-30T10:35:19.608Z,26.20
2022-08-30T10:38:11.156Z,26.30
2022-08-30T10:41:00.793Z,26.20
2022-08-30T10:43:50.987Z,26.20
2022-08-30T10:46:36.155Z,26.20
2022-08-30T10:49:08.808Z,26.30
2022-08-30T10:51:36.065Z,26.30
2022-08-30T10:54:41.203Z,26.50
2022-08-30T10:57:08.446Z,26.60
2022-08-30T10:59:38.985Z,26.60
2022-08-30T11:02:11.161Z,26.60
2022-08-30T11:05:11.184Z,26.70
2022-08-30T11:08:02.310Z,26.70
2022-08-30T11:10:50.126Z,26.70
2022-08-30T11:13:24.095Z,26.70
2022-08-30T11:16:04.508Z,26.80
2022-08-30T11:18:34.877Z,26.80
2022-08-30T11:21:23.344Z,26.90
2022-08-30T11:24:11.989Z,26.90
2022-08-30T11:26:45.824Z,27.10
2022-08-30T11:29:36.166Z,27.10
2022-08-30T11:32:12.520Z,27.30
2022-08-30T11:34:46.008Z,27.20
2022-08-30T11:37:57.695Z,27.20
2022-08-30T11:40:24.619Z,27.30
2022-08-30T11:42:54.941Z,27.30
2022-08-30T11:45:28.122Z,27.40
2022-08-30T11:47:59.621Z,27.30
2022-08-30T11:50:49.658Z,27.20
2022-08-30T11:53:24.580Z,27.30
2022-08-30T11:56:26.038Z,27.40
2022-08-30T11:59:07.776Z,27.70
2022-08-30T12:01:50.123Z,27.80
2022-08-30T12:04:19.869Z,27.80
2022-08-30T12:06:59.458Z,27.90
2022-08-30T12:09:26.797Z,28.10
2022-08-30T12:12:32.604Z,28.10
2022-08-30T12:15:00.552Z,28.20
2022-08-30T12:18:13.145Z,28.30
2022-08-30T12:20:50.208Z,28.50
2022-08-30T12:23:23.712Z,28.70
2022-08-30T12:26:13.629Z,28.90
2022-08-30T12:28:42.026Z,28.90
2022-08-30T12:31:16.323Z,28.90
2022-08-30T12:33:48.257Z,29.00
2022-08-30T12:36:48.653Z,28.90
2022-08-30T12:39:18.002Z,29.10
2022-08-30T12:41:45.596Z,29.00
2022-08-30T12:44:33.810Z,29.10
2022-08-30T12:47:04.669Z,29.20
2022-08-30T12:49:38.114Z,29.20
2022-08-30T12:52:26.014Z,29.40
2022-08-30T12:54:55.093Z,29.40
2022-08-30T12:57:54.545Z,29.30
2022-08-30T13:00:34.497Z,29.50
2022-08-30T13:03:16.045Z,29.50
2022-08-30T13:05:48.029Z,29.20
2022-08-30T13:08:18.863Z,29.30
2022-08-30T13:11:08.514Z,29.30
2022-08-30T13:13:44.502Z,29.40
2022-08-30T13:16:23.455Z,29.50
2022-08-30T13:19:28.258Z,29.60
2022-08-30T13:21:59.023Z,29.60
2022-08-30T13:24:26.903Z,29.60
2022-08-30T13:26:58.490Z,29.60
2022-08-30T13:29:28.367Z,29.90
2022-08-30T13:31:56.661Z,29.70
2022-08-30T13:34:24.043Z,29.60
2022-08-30T13:36:57.935Z,29.50
2022-08-30T13:39:27.027Z,29.50
2022-08-30T13:41:55.320Z,29.40
2022-08-30T13:44:42.318Z,29.40
2022-08-30T13:49:59.531Z,29.50
2022-08-30T13:52:28.498Z,29.70
2022-08-30T13:54:57.190Z,29.90
2022-08-30T14:00:19.779Z,29.80
2022-08-30T14:02:54.715Z,29.80
2022-08-30T14:05:54.712Z,29.60
2022-08-30T14:11:13.834Z,29.70
2022-08-30T14:16:32.767Z,29.90
2022-08-30T14:19:00.745Z,30.00
2022-08-30T14:21:28.370Z,30.10
2022-08-30T14:23:57.891Z,30.10
2022-08-30T14:26:32.330Z,30.00
2022-08-30T14:29:01.384Z,29.90
2022-08-30T14:31:30.081Z,29.90
2022-08-30T14:34:01.697Z,29.90
2022-08-30T14:36:31.489Z,29.90
2022-08-30T14:38:59.470Z,29.90
2022-08-30T14:41:26.804Z,30.10
2022-08-30T14:43:54.142Z,30.00
2022-08-30T14:46:25.743Z,30.00
2022-08-30T14:48:56.136Z,30.00
2022-08-30T14:51:24.036Z,30.20
2022-08-30T14:53:54.020Z,30.30
2022-08-30T14:56:22.822Z,30.20
2022-08-30T14:58:51.714Z,30.20
2022-08-30T15:01:20.520Z,30.40
2022-08-30T15:03:47.801Z,30.50
2022-08-30T15:06:15.756Z,30.30
2022-08-30T15:08:43.373Z,30.30
2022-08-30T15:11:19.133Z,30.30
2022-08-30T15:13:46.966Z,30.20
2022-08-30T15:16:21.052Z,30.10
2022-08-30T15:18:49.074Z,30.00
2022-08-30T15:21:23.918Z,30.10
2022-08-30T15:23:52.401Z,30.10
2022-08-30T15:26:20.255Z,29.90
2022-08-30T15:28:47.496Z,29.90
2022-08-30T15:31:15.002Z,29.70
2022-08-30T15:33:42.262Z,29.60
2022-08-30T15:36:12.514Z,29.60
2022-08-30T15:38:41.207Z,29.50
2022-08-30T15:41:12.430Z,29.40
2022-08-30T15:43:41.286Z,29.50
2022-08-30T15:46:55.358Z,29.40
2022-08-30T15:49:24.014Z,29.30
2022-08-30T15:51:53.994Z,29.40
2022-08-30T15:54:22.888Z,29.40
2022-08-30T15:56:50.659Z,29.40
2022-08-30T15:59:19.973Z,29.30
2022-08-30T16:01:47.730Z,29.30
2022-08-30T16:04:18.480Z,29.40
2022-08-30T16:06:47.053Z,29.30
2022-08-30T16:09:14.722Z,29.40
2022-08-30T16:11:42.345Z,29.30
2022-08-30T16:14:09.597Z,29.30
2022-08-30T16:16:39.882Z,29.10
2022-08-30T16:19:09.197Z,29.00
2022-08-30T16:21:37.459Z,29.10
2022-08-30T16:24:06.937Z,29.00
2022-08-30T16:26:35.278Z,28.90
2022-08-30T16:29:05.718Z,28.70
2022-08-30T16:31:36.059Z,28.70
2022-08-30T16:34:04.152Z,28.70
2022-08-30T16:36:33.603Z,28.60
2022-08-30T16:39:00.764Z,28.60
2022-08-30T16:41:28.384Z,28.60
2022-08-30T16:43:56.628Z,28.50
2022-08-30T16:46:27.863Z,28.50
2022-08-30T16:48:58.078Z,28.50
2022-08-30T16:51:27.089Z,28.40
2022-08-30T16:53:59.253Z,28.60
2022-08-30T16:56:29.511Z,28.70
2022-08-30T16:59:02.241Z,28.70
2022-08-30T17:01:37.634Z,28.70
2022-08-30T17:04:07.953Z,28.80
2022-08-30T17:06:36.460Z,29.00
2022-08-30T17:09:06.134Z,29.00
2022-08-30T17:11:34.972Z,28.90
2022-08-30T17:14:02.632Z,28.80
2022-08-30T17:16:30.287Z,28.70
2022-08-30T17:19:00.664Z,28.70
2022-08-30T17:21:31.270Z,28.60
2022-08-30T17:24:02.059Z,28.50
2022-08-30T17:26:34.763Z,28.40
2022-08-30T17:29:02.553Z,28.40
2022-08-30T17:31:31.276Z,28.30
2022-08-30T17:34:04.229Z,28.20
2022-08-30T17:36:35.582Z,28.10
2022-08-30T17:39:11.042Z,28.00
2022-08-30T17:41:50.269Z,27.90
2022-08-30T17:44:29.683Z,27.80
2022-08-30T17:46:58.521Z,27.80
2022-08-30T17:49:28.176Z,27.60
2022-08-30T17:51:57.104Z,27.50
2022-08-30T17:54:26.825Z,27.40
2022-08-30T17:56:54.613Z,27.40
2022-08-30T17:59:25.083Z,27.20
2022-08-30T18:01:54.936Z,27.20
2022-08-30T18:04:24.704Z,27.00
2022-08-30T18:06:52.879Z,27.00
2022-08-30T18:09:20.409Z,27.00
2022-08-30T18:11:48.786Z,26.90
2022-08-30T18:14:17.139Z,26.90
2022-08-30T18:16:53.615Z,26.90
2022-08-30T18:19:23.545Z,26.70
2022-08-30T18:21:51.677Z,26.60
2022-08-30T18:24:19.237Z,26.60
2022-08-30T18:26:46.704Z,26.50
2022-08-30T18:29:14.082Z,26.50
2022-08-30T18:31:41.498Z,26.50
2022-08-30T18:34:12.490Z,26.50
2022-08-30T18:36:41.378Z,26.50
2022-08-30T18:39:09.073Z,26.40
2022-08-30T18:41:43.033Z,26.50
2022-08-30T18:44:27.233Z,26.40
2022-08-30T18:46:57.248Z,26.30
2022-08-30T18:49:26.208Z,26.20
2022-08-30T18:51:54.145Z,26.20
2022-08-30T18:54:21.497Z,26.30
2022-08-30T18:56:50.025Z,26.20
2022-08-30T18:59:19.241Z,26.10
2022-08-30T19:01:47.246Z,26.10
2022-08-30T19:04:22.510Z,26.00
2022-08-30T19:07:01.918Z,26.00
2022-08-30T19:09:29.465Z,25.90
2022-08-30T19:11:56.552Z,26.00
2022-08-30T19:14:23.649Z,25.90
2022-08-30T19:16:56.403Z,25.90
2022-08-30T19:19:23.711Z,26.00
2022-08-30T19:21:51.793Z,25.90
2022-08-30T19:24:20.067Z,25.90
2022-08-30T19:26:47.566Z,25.80
2022-08-30T19:29:15.420Z,25.80
2022-08-30T19:31:44.045Z,25.70
2022-08-30T19:34:12.311Z,25.70
2022-08-30T19:36:39.916Z,25.60
2022-08-30T19:39:07.527Z,25.70
2022-08-30T19:41:34.918Z,25.70
2022-08-30T19:44:03.396Z,25.60
2022-08-30T19:46:32.520Z,25.60
2022-08-30T19:49:01.228Z,25.60
2022-08-30T19:51:28.818Z,25.60
2022-08-30T19:53:59.810Z,25.60
2022-08-30T19:56:30.027Z,25.50
2022-08-30T19:58:57.869Z,25.50
2022-08-30T20:01:33.165Z,25.40
2022-08-30T20:04:02.515Z,25.30
2022-08-30T20:06:31.033Z,25.10
2022-08-30T20:08:59.901Z,25.10
2022-08-30T20:11:28.061Z,25.10
2022-08-30T20:13:55.482Z,25.10
2022-08-30T20:16:35.737Z,25.10
2022-08-30T20:19:07.022Z,25.00
2022-08-30T20:21:34.389Z,25.00
2022-08-30T20:24:04.127Z,25.10
2022-08-30T20:26:34.483Z,25.10
2022-08-30T20:29:03.097Z,25.10
2022-08-30T20:31:30.542Z,25.10
2022-08-30T20:33:57.783Z,25.10
2022-08-30T20:36:25.052Z,25.00
2022-08-30T20:38:52.651Z,25.00
2022-08-30T20:41:20.076Z,25.00
2022-08-30T20:43:50.068Z,25.00
2022-08-30T20:46:19.828Z,24.90
2022-08-30T20:48:48.175Z,25.00
2022-08-30T20:51:18.829Z,24.90
2022-08-30T20:53:46.479Z,24.90
2022-08-30T20:56:16.277Z,24.90
2022-08-30T20:58:46.085Z,25.00
2022-08-30T21:01:13.731Z,24.90
2022-08-30T21:03:42.153Z,24.90
2022-08-30T21:06:11.938Z,24.80
2022-08-30T21:08:39.889Z,24.80
2022-08-30T21:11:07.684Z,24.80
2022-08-30T21:13:35.195Z,24.80
2022-08-30T21:16:03.641Z,24.70
2022-08-30T21:18:34.033Z,24.70
2022-08-30T21:21:09.276Z,24.50
2022-08-30T21:23:37.497Z,24.60
2022-08-30T21:26:06.837Z,24.60
2022-08-30T21:28:34.333Z,24.60
2022-08-30T21:31:12.928Z,24.70
2022-08-30T21:33:45.391Z,24.50
2022-08-30T21:36:31.099Z,24.50
2022-08-30T21:39:00.693Z,24.50
2022-08-30T21:41:30.150Z,24.50
2022-08-30T21:44:02.664Z,24.40
2022-08-30T21:46:32.092Z,24.40
2022-08-30T21:49:01.683Z,24.40
2022-08-30T21:51:32.131Z,24.30
2022-08-30T21:53:59.549Z,24.20
2022-08-30T21:56:26.552Z,24.20
2022-08-30T21:58:54.923Z,24.20
2022-08-30T22:01:28.836Z,24.10
2022-08-30T22:04:00.975Z,24.00
2022-08-30T22:06:30.734Z,24.00
2022-08-30T22:09:01.112Z,24.00
2022-08-30T22:11:31.189Z,24.00
2022-08-30T22:14:26.427Z,24.10
2022-08-30T22:16:54.095Z,24.10
2022-08-30T22:19:23.532Z,24.00
2022-08-30T22:21:55.453Z,23.90
2022-08-30T22:24:32.776Z,23.90
2022-08-30T22:27:03.234Z,23.90
2022-08-30T22:29:30.832Z,23.90
2022-08-30T22:31:57.920Z,23.90
2022-08-30T22:34:27.729Z,24.10
2022-08-30T22:36:55.009Z,23.80
2022-08-30T22:39:22.260Z,23.70
2022-08-30T22:41:50.461Z,23.70
2022-08-30T22:44:18.926Z,23.70
2022-08-30T22:46:46.571Z,23.60
2022-08-30T22:49:13.845Z,23.60
2022-08-30T22:51:41.918Z,23.50
2022-08-30T22:54:10.400Z,23.40
2022-08-30T22:56:39.080Z,23.40
2022-08-30T22:59:06.784Z,23.40
2022-08-30T23:01:40.154Z,23.40
2022-08-30T23:04:08.667Z,23.50
2022-08-30T23:06:36.788Z,23.40
2022-08-30T23:09:06.095Z,23.40
2022-08-30T23:11:33.276Z,23.40
2022-08-30T23:14:02.222Z,23.40
2022-08-30T23:16:29.920Z,23.30
2022-08-30T23:18:57.355Z,23.30
2022-08-30T23:21:27.476Z,23.20
2022-08-30T23:24:15.816Z,23.30
2022-08-30T23:27:03.539Z,23.20
2022-08-30T23:29:50.069Z,23.10
2022-08-30T23:32:36.149Z,23.20
2022-08-30T23:35:29.206Z,23.30
2022-08-30T23:38:17.225Z,23.30
2022-08-30T23:41:06.153Z,23.10
2022-08-30T23:44:11.122Z,23.00
2022-08-30T23:46:57.016Z,22.90
2022-08-30T23:49:42.892Z,22.80
2022-08-30T23:52:28.522Z,22.60
2022-08-30T23:55:14.679Z,22.60
2022-08-30T23:58:00.654Z,22.60
